sensor_id;sensor_type;location;lat;lon;timestamp;temperature;humidity
13585;DHT22;6863;48.402;9.994;2022-09-02T00:01:20;12.40;99.90
13585;DHT22;6863;48.402;9.994;2022-09-02T00:03:48;12.40;99.90
13585;DHT22;6863;48.402;9.994;2022-09-02T00:06:15;12.30;99.90
13585;DHT22;6863;48.402;9.994;2022-09-02T00:08:41;12.30;99.90
13585;DHT22;6863;48.402;9.994;2022-09-02T00:11:08;12.20;99.90
13585;DHT22;6863;48.402;9.994;2022-09-02T00:13:37;12.20;99.90
13585;DHT22;6863;48.402;9.994;2022-09-02T00:16:03;12.20;99.90
13585;DHT22;6863;48.402;9.994;2022-09-02T00:18:29;12.10;99.90
13585;DHT22;6863;48.402;9.994;2022-09-02T00:20:55;12.10;99.90
13585;DHT22;6863;48.402;9.994;2022-09-02T00:23:21;12.10;99.90
13585;DHT22;6863;48.402;9.994;2022-09-02T00:25:47;12.00;99.90
13585;DHT22;6863;48.402;9.994;2022-09-02T00:28:14;11.90;99.90
13585;DHT22;6863;48.402;9.994;2022-09-02T00:30:41;11.90;99.90
13585;DHT22;6863;48.402;9.994;2022-09-02T00:33:07;12.00;99.90
13585;DHT22;6863;48.402;9.994;2022-09-02T00:35:33;11.90;99.90
13585;DHT22;6863;48.402;9.994;2022-09-02T00:37:59;11.80;99.90
13585;DHT22;6863;48.402;9.994;2022-09-02T00:40:26;11.80;99.90
13585;DHT22;6863;48.402;9.994;2022-09-02T00:42:52;11.80;99.90
13585;DHT22;6863;48.402;9.994;2022-09-02T00:45:19;11.80;99.90
13585;DHT22;6863;48.402;9.994;2022-09-02T00:47:45;11.80;99.90
13585;DHT22;6863;48.402;9.994;2022-09-02T00:50:16;11.80;99.90
13585;DHT22;6863;48.402;9.994;2022-09-02T00:52:46;11.70;99.90
13585;DHT22;6863;48.402;9.994;2022-09-02T00:55:23;11.70;99.90
13585;DHT22;6863;48.402;9.994;2022-09-02T00:57:57;11.70;99.90
13585;DHT22;6863;48.402;9.994;2022-09-02T01:00:28;11.70;99.90
13585;DHT22;6863;48.402;9.994;2022-09-02T01:02:56;11.70;99.90
13585;DHT22;6863;48.402;9.994;2022-09-02T01:05:25;11.70;99.90
13585;DHT22;6863;48.402;9.994;2022-09-02T01:07:53;11.60;99.90
13585;DHT22;6863;48.402;9.994;2022-09-02T01:10:25;11.60;99.90
13585;DHT22;6863;48.402;9.994;2022-09-02T01:12:58;11.60;99.90
13585;DHT22;6863;48.402;9.994;2022-09-02T01:15:25;11.50;99.90
13585;DHT22;6863;48.402;9.994;2022-09-02T01:17:52;11.60;99.90
13585;DHT22;6863;48.402;9.994;2022-09-02T01:20:22;11.50;99.90
13585;DHT22;6863;48.402;9.994;2022-09-02T01:22:48;11.50;99.90
13585;DHT22;6863;48.402;9.994;2022-09-02T01:25:17;11.40;99.90
13585;DHT22;6863;48.402;9.994;2022-09-02T01:27:44;11.40;99.90
13585;DHT22;6863;48.402;9.994;2022-09-02T01:30:12;11.40;99.90
13585;DHT22;6863;48.402;9.994;2022-09-02T01:32:38;11.40;99.90
13585;DHT22;6863;48.402;9.994;2022-09-02T01:35:04;11.30;99.90
13585;DHT22;6863;48.402;9.994;2022-09-02T01:37:31;11.30;99.90
13585;DHT22;6863;48.402;9.994;2022-09-02T01:39:57;11.30;99.90
13585;DHT22;6863;48.402;9.994;2022-09-02T01:42:24;11.30;99.90
13585;DHT22;6863;48.402;9.994;2022-09-02T01:44:50;11.20;99.90
13585;DHT22;6863;48.402;9.994;2022-09-02T01:47:19;11.20;99.90
13585;DHT22;6863;48.402;9.994;2022-09-02T01:49:46;11.10;99.90
13585;DHT22;6863;48.402;9.994;2022-09-02T01:52:13;11.10;99.90
13585;DHT22;6863;48.402;9.994;2022-09-02T01:54:39;11.20;99.90
13585;DHT22;6863;48.402;9.994;2022-09-02T01:57:04;11.30;99.90
13585;DHT22;6863;48.402;9.994;2022-09-02T01:59:30;11.30;99.90
13585;DHT22;6863;48.402;9.994;2022-09-02T02:01:56;11.30;99.90
13585;DHT22;6863;48.402;9.994;2022-09-02T02:04:21;11.40;99.90
13585;DHT22;6863;48.402;9.994;2022-09-02T02:06:49;11.30;99.90
13585;DHT22;6863;48.402;9.994;2022-09-02T02:09:16;11.20;99.90
13585;DHT22;6863;48.402;9.994;2022-09-02T02:11:42;11.20;99.90
13585;DHT22;6863;48.402;9.994;2022-09-02T02:14:08;11.10;99.90
13585;DHT22;6863;48.402;9.994;2022-09-02T02:16:34;11.00;99.90
13585;DHT22;6863;48.402;9.994;2022-09-02T02:19:00;11.00;99.90
13585;DHT22;6863;48.402;9.994;2022-09-02T02:21:26;11.10;99.90
13585;DHT22;6863;48.402;9.994;2022-09-02T02:23:52;11.10;99.90
13585;DHT22;6863;48.402;9.994;2022-09-02T02:26:18;11.10;99.90
13585;DHT22;6863;48.402;9.994;2022-09-02T02:28:43;11.10;99.90
13585;DHT22;6863;48.402;9.994;2022-09-02T02:31:09;11.00;99.90
13585;DHT22;6863;48.402;9.994;2022-09-02T02:33:35;11.00;99.90
13585;DHT22;6863;48.402;9.994;2022-09-02T02:36:02;11.10;99.90
13585;DHT22;6863;48.402;9.994;2022-09-02T02:38:30;11.10;99.90
13585;DHT22;6863;48.402;9.994;2022-09-02T02:40:56;11.00;99.90
13585;DHT22;6863;48.402;9.994;2022-09-02T02:43:23;11.10;99.90
13585;DHT22;6863;48.402;9.994;2022-09-02T02:45:49;11.10;99.90
13585;DHT22;6863;48.402;9.994;2022-09-02T02:48:15;11.10;99.90
13585;DHT22;6863;48.402;9.994;2022-09-02T02:50:41;11.10;99.90
13585;DHT22;6863;48.402;9.994;2022-09-02T02:53:07;11.10;99.90
13585;DHT22;6863;48.402;9.994;2022-09-02T02:55:33;11.10;99.90
13585;DHT22;6863;48.402;9.994;2022-09-02T02:57:59;11.10;99.90
13585;DHT22;6863;48.402;9.994;2022-09-02T03:00:28;11.20;99.90
13585;DHT22;6863;48.402;9.994;2022-09-02T03:02:55;11.20;99.90
13585;DHT22;6863;48.402;9.994;2022-09-02T03:05:21;11.10;99.90
13585;DHT22;6863;48.402;9.994;2022-09-02T03:07:46;11.10;99.90
13585;DHT22;6863;48.402;9.994;2022-09-02T03:10:13;11.10;99.90
13585;DHT22;6863;48.402;9.994;2022-09-02T03:12:39;11.10;99.90
13585;DHT22;6863;48.402;9.994;2022-09-02T03:15:06;11.00;99.90
13585;DHT22;6863;48.402;9.994;2022-09-02T03:17:32;11.00;99.90
13585;DHT22;6863;48.402;9.994;2022-09-02T03:19:58;11.10;99.90
13585;DHT22;6863;48.402;9.994;2022-09-02T03:22:25;11.10;99.90
13585;DHT22;6863;48.402;9.994;2022-09-02T03:24:51;11.10;99.90
13585;DHT22;6863;48.402;9.994;2022-09-02T03:27:17;10.90;99.90
13585;DHT22;6863;48.402;9.994;2022-09-02T03:29:42;10.90;99.90
13585;DHT22;6863;48.402;9.994;2022-09-02T03:32:09;10.80;99.90
13585;DHT22;6863;48.402;9.994;2022-09-02T03:34:35;10.80;99.90
13585;DHT22;6863;48.402;9.994;2022-09-02T03:37:01;10.80;99.90
13585;DHT22;6863;48.402;9.994;2022-09-02T03:39:26;10.90;99.90
13585;DHT22;6863;48.402;9.994;2022-09-02T03:41:53;10.80;99.90
13585;DHT22;6863;48.402;9.994;2022-09-02T03:44:19;10.80;99.90
13585;DHT22;6863;48.402;9.994;2022-09-02T03:46:45;10.80;99.90
13585;DHT22;6863;48.402;9.994;2022-09-02T03:49:10;10.80;99.90
13585;DHT22;6863;48.402;9.994;2022-09-02T03:51:40;10.70;99.90
13585;DHT22;6863;48.402;9.994;2022-09-02T03:54:05;10.70;99.90
13585;DHT22;6863;48.402;9.994;2022-09-02T03:56:32;10.70;99.90
13585;DHT22;6863;48.402;9.994;2022-09-02T03:58:58;10.60;99.90
13585;DHT22;6863;48.402;9.994;2022-09-02T04:01:24;10.60;99.90
13585;DHT22;6863;48.402;9.994;2022-09-02T04:03:50;10.60;99.90
13585;DHT22;6863;48.402;9.994;2022-09-02T04:06:17;10.50;99.90
13585;DHT22;6863;48.402;9.994;2022-09-02T04:08:44;10.60;99.90
13585;DHT22;6863;48.402;9.994;2022-09-02T04:11:13;10.60;99.90
13585;DHT22;6863;48.402;9.994;2022-09-02T04:13:41;10.60;99.90
13585;DHT22;6863;48.402;9.994;2022-09-02T04:22:36;10.60;99.90
13585;DHT22;6863;48.402;9.994;2022-09-02T04:25:03;10.60;99.90
13585;DHT22;6863;48.402;9.994;2022-09-02T04:27:29;10.60;99.90
13585;DHT22;6863;48.402;9.994;2022-09-02T04:29:55;10.50;99.90
13585;DHT22;6863;48.402;9.994;2022-09-02T04:32:21;10.40;99.90
13585;DHT22;6863;48.402;9.994;2022-09-02T04:34:47;10.40;99.90
13585;DHT22;6863;48.402;9.994;2022-09-02T04:37:13;10.60;99.90
13585;DHT22;6863;48.402;9.994;2022-09-02T04:39:39;10.60;99.90
13585;DHT22;6863;48.402;9.994;2022-09-02T04:42:05;10.70;99.90
13585;DHT22;6863;48.402;9.994;2022-09-02T04:44:31;10.60;99.90
13585;DHT22;6863;48.402;9.994;2022-09-02T04:47:00;10.70;99.90
13585;DHT22;6863;48.402;9.994;2022-09-02T04:49:26;10.70;99.90
13585;DHT22;6863;48.402;9.994;2022-09-02T04:51:55;10.70;99.90
13585;DHT22;6863;48.402;9.994;2022-09-02T04:54:21;10.60;99.90
13585;DHT22;6863;48.402;9.994;2022-09-02T04:56:47;10.60;99.90
13585;DHT22;6863;48.402;9.994;2022-09-02T04:59:13;10.70;99.90
13585;DHT22;6863;48.402;9.994;2022-09-02T05:01:38;10.70;99.90
13585;DHT22;6863;48.402;9.994;2022-09-02T05:04:06;10.70;99.90
13585;DHT22;6863;48.402;9.994;2022-09-02T05:06:34;10.60;99.90
13585;DHT22;6863;48.402;9.994;2022-09-02T05:09:01;10.60;99.90
13585;DHT22;6863;48.402;9.994;2022-09-02T05:11:29;10.60;99.90
13585;DHT22;6863;48.402;9.994;2022-09-02T05:13:58;10.70;99.90
13585;DHT22;6863;48.402;9.994;2022-09-02T05:16:28;10.80;99.90
13585;DHT22;6863;48.402;9.994;2022-09-02T05:18:55;10.80;99.90
13585;DHT22;6863;48.402;9.994;2022-09-02T05:21:21;10.90;99.90
13585;DHT22;6863;48.402;9.994;2022-09-02T05:23:49;11.00;99.90
13585;DHT22;6863;48.402;9.994;2022-09-02T05:26:15;11.00;99.90
13585;DHT22;6863;48.402;9.994;2022-09-02T05:28:41;11.10;99.90
13585;DHT22;6863;48.402;9.994;2022-09-02T05:31:18;11.10;99.90
13585;DHT22;6863;48.402;9.994;2022-09-02T05:33:45;11.20;99.90
13585;DHT22;6863;48.402;9.994;2022-09-02T05:36:16;11.30;99.90
13585;DHT22;6863;48.402;9.994;2022-09-02T05:38:43;11.30;99.90
13585;DHT22;6863;48.402;9.994;2022-09-02T05:41:15;11.40;99.90
13585;DHT22;6863;48.402;9.994;2022-09-02T05:43:42;11.60;99.90
13585;DHT22;6863;48.402;9.994;2022-09-02T05:46:15;11.70;99.90
13585;DHT22;6863;48.402;9.994;2022-09-02T05:48:43;11.80;99.90
13585;DHT22;6863;48.402;9.994;2022-09-02T05:53:59;12.10;99.90
13585;DHT22;6863;48.402;9.994;2022-09-02T05:56:26;12.30;99.90
13585;DHT22;6863;48.402;9.994;2022-09-02T05:58:54;12.50;99.90
13585;DHT22;6863;48.402;9.994;2022-09-02T06:01:20;12.70;99.90
13585;DHT22;6863;48.402;9.994;2022-09-02T06:03:45;12.80;99.90
13585;DHT22;6863;48.402;9.994;2022-09-02T06:06:12;13.00;99.90
13585;DHT22;6863;48.402;9.994;2022-09-02T06:08:38;13.10;99.90
13585;DHT22;6863;48.402;9.994;2022-09-02T06:11:07;13.30;99.90
13585;DHT22;6863;48.402;9.994;2022-09-02T06:13:35;13.40;99.90
13585;DHT22;6863;48.402;9.994;2022-09-02T06:16:02;13.60;99.90
13585;DHT22;6863;48.402;9.994;2022-09-02T06:18:28;13.70;99.90
13585;DHT22;6863;48.402;9.994;2022-09-02T06:20:54;13.80;99.90
13585;DHT22;6863;48.402;9.994;2022-09-02T06:23:19;14.00;99.90
13585;DHT22;6863;48.402;9.994;2022-09-02T06:25:47;14.10;99.90
13585;DHT22;6863;48.402;9.994;2022-09-02T06:28:13;14.20;99.90
13585;DHT22;6863;48.402;9.994;2022-09-02T06:30:44;14.30;99.90
13585;DHT22;6863;48.402;9.994;2022-09-02T06:33:11;14.50;99.90
13585;DHT22;6863;48.402;9.994;2022-09-02T06:35:39;14.60;99.90
13585;DHT22;6863;48.402;9.994;2022-09-02T06:38:05;14.80;99.90
13585;DHT22;6863;48.402;9.994;2022-09-02T06:40:30;14.90;99.90
13585;DHT22;6863;48.402;9.994;2022-09-02T06:42:56;15.00;99.70
13585;DHT22;6863;48.402;9.994;2022-09-02T06:45:22;15.20;99.70
13585;DHT22;6863;48.402;9.994;2022-09-02T06:47:51;15.30;99.30
13585;DHT22;6863;48.402;9.994;2022-09-02T06:50:20;15.50;98.90
13585;DHT22;6863;48.402;9.994;2022-09-02T06:52:46;15.60;98.80
13585;DHT22;6863;48.402;9.994;2022-09-02T06:55:12;15.80;98.40
13585;DHT22;6863;48.402;9.994;2022-09-02T06:57:38;15.80;98.00
13585;DHT22;6863;48.402;9.994;2022-09-02T07:00:06;15.90;98.00
13585;DHT22;6863;48.402;9.994;2022-09-02T07:02:33;16.10;97.70
13585;DHT22;6863;48.402;9.994;2022-09-02T07:04:59;16.20;97.50
13585;DHT22;6863;48.402;9.994;2022-09-02T07:07:41;16.50;96.90
13585;DHT22;6863;48.402;9.994;2022-09-02T07:10:10;16.50;96.70
13585;DHT22;6863;48.402;9.994;2022-09-02T07:12:38;16.70;96.60
13585;DHT22;6863;48.402;9.994;2022-09-02T07:15:05;16.90;96.50
13585;DHT22;6863;48.402;9.994;2022-09-02T07:17:32;17.10;96.10
13585;DHT22;6863;48.402;9.994;2022-09-02T07:19:58;17.10;95.70
13585;DHT22;6863;48.402;9.994;2022-09-02T07:22:25;17.30;95.20
13585;DHT22;6863;48.402;9.994;2022-09-02T07:24:51;17.40;95.20
13585;DHT22;6863;48.402;9.994;2022-09-02T07:27:17;17.70;94.90
13585;DHT22;6863;48.402;9.994;2022-09-02T07:29:45;17.90;94.30
13585;DHT22;6863;48.402;9.994;2022-09-02T07:32:13;18.00;93.90
13585;DHT22;6863;48.402;9.994;2022-09-02T07:34:39;18.10;93.50
13585;DHT22;6863;48.402;9.994;2022-09-02T07:37:04;18.20;93.40
13585;DHT22;6863;48.402;9.994;2022-09-02T07:39:31;18.30;92.70
13585;DHT22;6863;48.402;9.994;2022-09-02T07:41:57;18.40;92.90
13585;DHT22;6863;48.402;9.994;2022-09-02T07:44:22;18.70;92.30
13585;DHT22;6863;48.402;9.994;2022-09-02T07:46:49;18.90;91.90
13585;DHT22;6863;48.402;9.994;2022-09-02T07:49:15;19.30;91.40
13585;DHT22;6863;48.402;9.994;2022-09-02T07:51:44;19.50;90.40
13585;DHT22;6863;48.402;9.994;2022-09-02T07:54:13;19.60;90.40
13585;DHT22;6863;48.402;9.994;2022-09-02T07:56:39;20.00;88.90
13585;DHT22;6863;48.402;9.994;2022-09-02T07:59:05;20.20;87.70
13585;DHT22;6863;48.402;9.994;2022-09-02T08:01:30;20.40;86.60
13585;DHT22;6863;48.402;9.994;2022-09-02T08:03:56;20.50;85.90
13585;DHT22;6863;48.402;9.994;2022-09-02T08:06:22;20.50;85.10
13585;DHT22;6863;48.402;9.994;2022-09-02T08:08:52;20.70;83.80
13585;DHT22;6863;48.402;9.994;2022-09-02T08:11:18;21.00;82.60
13585;DHT22;6863;48.402;9.994;2022-09-02T08:13:44;21.40;80.60
13585;DHT22;6863;48.402;9.994;2022-09-02T08:16:10;21.70;79.20
13585;DHT22;6863;48.402;9.994;2022-09-02T08:18:36;22.20;77.40
13585;DHT22;6863;48.402;9.994;2022-09-02T08:21:01;22.50;76.40
13585;DHT22;6863;48.402;9.994;2022-09-02T08:23:27;23.10;73.10
13585;DHT22;6863;48.402;9.994;2022-09-02T08:25:53;23.50;71.60
13585;DHT22;6863;48.402;9.994;2022-09-02T08:28:18;24.30;69.60
13585;DHT22;6863;48.402;9.994;2022-09-02T08:30:44;24.90;66.10
13585;DHT22;6863;48.402;9.994;2022-09-02T08:33:10;25.40;63.60
13585;DHT22;6863;48.402;9.994;2022-09-02T08:35:36;25.30;63.60
13585;DHT22;6863;48.402;9.994;2022-09-02T08:38:02;25.60;61.30
13585;DHT22;6863;48.402;9.994;2022-09-02T08:40:35;26.40;60.30
13585;DHT22;6863;48.402;9.994;2022-09-02T08:43:03;27.10;57.70
13585;DHT22;6863;48.402;9.994;2022-09-02T08:50:38;27.80;53.80
13585;DHT22;6863;48.402;9.994;2022-09-02T08:53:36;28.50;52.50
13585;DHT22;6863;48.402;9.994;2022-09-02T08:56:05;30.70;46.80
13585;DHT22;6863;48.402;9.994;2022-09-02T08:58:41;31.60;44.10
13585;DHT22;6863;48.402;9.994;2022-09-02T09:01:23;32.60;41.20
13585;DHT22;6863;48.402;9.994;2022-09-02T09:06:49;34.30;36.80
13585;DHT22;6863;48.402;9.994;2022-09-02T09:12:14;35.50;34.00
13585;DHT22;6863;48.402;9.994;2022-09-02T09:19:49;36.30;31.60
13585;DHT22;6863;48.402;9.994;2022-09-02T09:22:21;36.70;31.20
13585;DHT22;6863;48.402;9.994;2022-09-02T09:24:49;37.30;30.00
13585;DHT22;6863;48.402;9.994;2022-09-02T09:27:20;37.60;29.40
13585;DHT22;6863;48.402;9.994;2022-09-02T09:29:47;37.60;29.00
13585;DHT22;6863;48.402;9.994;2022-09-02T09:32:29;37.60;28.60
13585;DHT22;6863;48.402;9.994;2022-09-02T09:35:00;37.60;28.70
13585;DHT22;6863;48.402;9.994;2022-09-02T09:40:22;39.20;27.50
13585;DHT22;6863;48.402;9.994;2022-09-02T09:48:16;40.30;25.70
13585;DHT22;6863;48.402;9.994;2022-09-02T09:51:11;39.80;25.50
13585;DHT22;6863;48.402;9.994;2022-09-02T09:53:49;39.50;25.20
13585;DHT22;6863;48.402;9.994;2022-09-02T09:58:42;38.00;26.50
13585;DHT22;6863;48.402;9.994;2022-09-02T10:01:11;38.70;26.10
13585;DHT22;6863;48.402;9.994;2022-09-02T10:03:44;38.80;25.60
13585;DHT22;6863;48.402;9.994;2022-09-02T10:06:23;38.80;25.70
13585;DHT22;6863;48.402;9.994;2022-09-02T10:08:53;38.90;25.30
13585;DHT22;6863;48.402;9.994;2022-09-02T10:11:25;38.90;25.60
13585;DHT22;6863;48.402;9.994;2022-09-02T10:13:57;39.30;25.20
13585;DHT22;6863;48.402;9.994;2022-09-02T10:16:27;39.80;24.80
13585;DHT22;6863;48.402;9.994;2022-09-02T10:19:16;39.80;24.80
13585;DHT22;6863;48.402;9.994;2022-09-02T10:30:25;41.50;23.40
13585;DHT22;6863;48.402;9.994;2022-09-02T10:32:57;41.70;22.90
13585;DHT22;6863;48.402;9.994;2022-09-02T10:35:41;42.00;22.10
13585;DHT22;6863;48.402;9.994;2022-09-02T10:40:44;41.20;22.50
13585;DHT22;6863;48.402;9.994;2022-09-02T10:46:23;41.60;22.20
13585;DHT22;6863;48.402;9.994;2022-09-02T10:54:49;43.00;21.40
13585;DHT22;6863;48.402;9.994;2022-09-02T10:57:49;41.20;22.20
13585;DHT22;6863;48.402;9.994;2022-09-02T11:00:16;41.50;21.80
13585;DHT22;6863;48.402;9.994;2022-09-02T11:08:17;42.60;21.30
13585;DHT22;6863;48.402;9.994;2022-09-02T11:16:19;42.40;20.70
13585;DHT22;6863;48.402;9.994;2022-09-02T11:19:05;42.60;20.70
13585;DHT22;6863;48.402;9.994;2022-09-02T11:24:36;42.90;20.50
13585;DHT22;6863;48.402;9.994;2022-09-02T11:32:20;43.10;20.40
13585;DHT22;6863;48.402;9.994;2022-09-02T11:34:50;43.30;20.40
13585;DHT22;6863;48.402;9.994;2022-09-02T11:40:10;43.70;20.30
13585;DHT22;6863;48.402;9.994;2022-09-02T11:48:56;44.10;19.90
13585;DHT22;6863;48.402;9.994;2022-09-02T11:53:55;42.60;20.40
13585;DHT22;6863;48.402;9.994;2022-09-02T11:56:30;43.50;20.20
13585;DHT22;6863;48.402;9.994;2022-09-02T11:59:00;43.70;20.30
13585;DHT22;6863;48.402;9.994;2022-09-02T12:01:29;43.80;19.80
13585;DHT22;6863;48.402;9.994;2022-09-02T12:04:19;43.70;19.70
13585;DHT22;6863;48.402;9.994;2022-09-02T12:09:49;42.70;20.50
13585;DHT22;6863;48.402;9.994;2022-09-02T12:15:16;41.40;21.50
13585;DHT22;6863;48.402;9.994;2022-09-02T12:23:01;44.00;19.70
13585;DHT22;6863;48.402;9.994;2022-09-02T12:28:13;42.50;20.90
13585;DHT22;6863;48.402;9.994;2022-09-02T12:33:37;43.00;20.10
13585;DHT22;6863;48.402;9.994;2022-09-02T12:36:04;43.20;20.30
13585;DHT22;6863;48.402;9.994;2022-09-02T12:38:33;42.90;20.40
13585;DHT22;6863;48.402;9.994;2022-09-02T12:43:35;43.30;20.30
13585;DHT22;6863;48.402;9.994;2022-09-02T12:51:56;43.70;19.80
13585;DHT22;6863;48.402;9.994;2022-09-02T12:54:46;43.80;19.70
13585;DHT22;6863;48.402;9.994;2022-09-02T12:57:17;43.60;19.80
13585;DHT22;6863;48.402;9.994;2022-09-02T12:59:45;43.80;19.40
13585;DHT22;6863;48.402;9.994;2022-09-02T13:02:35;43.40;19.70
13585;DHT22;6863;48.402;9.994;2022-09-02T13:19:53;43.00;20.10
13585;DHT22;6863;48.402;9.994;2022-09-02T13:25:27;43.00;20.10
13585;DHT22;6863;48.402;9.994;2022-09-02T13:28:10;42.40;20.70
13585;DHT22;6863;48.402;9.994;2022-09-02T13:33:31;42.40;20.70
13585;DHT22;6863;48.402;9.994;2022-09-02T13:35:57;41.40;21.00
13585;DHT22;6863;48.402;9.994;2022-09-02T13:38:26;41.50;20.90
13585;DHT22;6863;48.402;9.994;2022-09-02T13:40:52;41.90;20.80
13585;DHT22;6863;48.402;9.994;2022-09-02T13:43:20;42.20;20.60
13585;DHT22;6863;48.402;9.994;2022-09-02T13:45:48;42.10;20.80
13585;DHT22;6863;48.402;9.994;2022-09-02T13:50:48;41.70;21.20
13585;DHT22;6863;48.402;9.994;2022-09-02T13:53:32;41.90;21.10
13585;DHT22;6863;48.402;9.994;2022-09-02T13:55:59;41.20;21.30
13585;DHT22;6863;48.402;9.994;2022-09-02T14:00:55;39.80;22.30
13585;DHT22;6863;48.402;9.994;2022-09-02T14:03:21;40.20;22.70
13585;DHT22;6863;48.402;9.994;2022-09-02T14:05:50;40.20;22.00
13585;DHT22;6863;48.402;9.994;2022-09-02T14:08:24;40.60;21.90
13585;DHT22;6863;48.402;9.994;2022-09-02T14:10:54;40.70;21.40
13585;DHT22;6863;48.402;9.994;2022-09-02T14:13:21;40.40;21.70
13585;DHT22;6863;48.402;9.994;2022-09-02T14:15:47;40.40;21.30
13585;DHT22;6863;48.402;9.994;2022-09-02T14:18:18;41.00;21.30
13585;DHT22;6863;48.402;9.994;2022-09-02T14:21:00;41.70;21.20
13585;DHT22;6863;48.402;9.994;2022-09-02T14:23:30;41.70;21.20
13585;DHT22;6863;48.402;9.994;2022-09-02T14:25:59;41.70;21.10
13585;DHT22;6863;48.402;9.994;2022-09-02T14:28:31;41.10;21.50
13585;DHT22;6863;48.402;9.994;2022-09-02T14:31:02;41.10;21.60
13585;DHT22;6863;48.402;9.994;2022-09-02T14:43:46;39.60;22.60
13585;DHT22;6863;48.402;9.994;2022-09-02T14:46:34;39.00;23.20
13585;DHT22;6863;48.402;9.994;2022-09-02T14:49:07;38.50;23.50
13585;DHT22;6863;48.402;9.994;2022-09-02T14:51:37;38.30;23.90
13585;DHT22;6863;48.402;9.994;2022-09-02T14:54:05;37.50;24.20
13585;DHT22;6863;48.402;9.994;2022-09-02T14:56:50;37.40;24.10
13585;DHT22;6863;48.402;9.994;2022-09-02T14:59:17;37.20;24.20
13585;DHT22;6863;48.402;9.994;2022-09-02T15:01:46;37.20;24.80
13585;DHT22;6863;48.402;9.994;2022-09-02T15:04:13;37.20;24.40
13585;DHT22;6863;48.402;9.994;2022-09-02T15:06:40;36.90;24.60
13585;DHT22;6863;48.402;9.994;2022-09-02T15:09:06;36.80;24.40
13585;DHT22;6863;48.402;9.994;2022-09-02T15:11:31;36.90;23.90
13585;DHT22;6863;48.402;9.994;2022-09-02T15:13:57;36.60;24.20
13585;DHT22;6863;48.402;9.994;2022-09-02T15:16:23;37.00;23.90
13585;DHT22;6863;48.402;9.994;2022-09-02T15:18:49;36.90;24.00
13585;DHT22;6863;48.402;9.994;2022-09-02T15:21:15;36.40;24.80
13585;DHT22;6863;48.402;9.994;2022-09-02T15:23:41;35.50;25.40
13585;DHT22;6863;48.402;9.994;2022-09-02T15:26:07;35.00;25.60
13585;DHT22;6863;48.402;9.994;2022-09-02T15:28:33;34.60;26.10
13585;DHT22;6863;48.402;9.994;2022-09-02T15:30:59;33.90;26.80
13585;DHT22;6863;48.402;9.994;2022-09-02T15:33:26;33.10;27.40
13585;DHT22;6863;48.402;9.994;2022-09-02T15:35:54;32.90;28.10
13585;DHT22;6863;48.402;9.994;2022-09-02T15:38:28;32.70;28.50
13585;DHT22;6863;48.402;9.994;2022-09-02T15:40:54;32.30;28.80
13585;DHT22;6863;48.402;9.994;2022-09-02T15:43:19;31.90;28.80
13585;DHT22;6863;48.402;9.994;2022-09-02T15:45:46;31.10;29.70
13585;DHT22;6863;48.402;9.994;2022-09-02T15:48:12;30.30;30.80
13585;DHT22;6863;48.402;9.994;2022-09-02T15:50:38;29.70;31.30
13585;DHT22;6863;48.402;9.994;2022-09-02T15:53:04;29.10;32.30
13585;DHT22;6863;48.402;9.994;2022-09-02T15:55:33;28.60;33.40
13585;DHT22;6863;48.402;9.994;2022-09-02T15:57:59;28.00;33.60
13585;DHT22;6863;48.402;9.994;2022-09-02T16:00:25;27.50;34.50
13585;DHT22;6863;48.402;9.994;2022-09-02T16:02:51;27.00;35.80
13585;DHT22;6863;48.402;9.994;2022-09-02T16:05:17;26.40;37.10
13585;DHT22;6863;48.402;9.994;2022-09-02T16:07:42;26.10;37.70
13585;DHT22;6863;48.402;9.994;2022-09-02T16:10:08;25.60;38.10
13585;DHT22;6863;48.402;9.994;2022-09-02T16:12:35;25.40;38.90
13585;DHT22;6863;48.402;9.994;2022-09-02T16:15:00;25.20;39.00
13585;DHT22;6863;48.402;9.994;2022-09-02T16:17:26;25.00;39.50
13585;DHT22;6863;48.402;9.994;2022-09-02T16:19:52;25.00;39.70
13585;DHT22;6863;48.402;9.994;2022-09-02T16:22:18;24.90;39.80
13585;DHT22;6863;48.402;9.994;2022-09-02T16:24:44;24.80;40.30
13585;DHT22;6863;48.402;9.994;2022-09-02T16:27:09;24.60;40.90
13585;DHT22;6863;48.402;9.994;2022-09-02T16:29:35;24.50;41.40
13585;DHT22;6863;48.402;9.994;2022-09-02T16:32:02;24.30;41.60
13585;DHT22;6863;48.402;9.994;2022-09-02T16:34:28;24.10;42.30
13585;DHT22;6863;48.402;9.994;2022-09-02T16:36:53;24.00;42.60
13585;DHT22;6863;48.402;9.994;2022-09-02T16:39:19;23.90;43.00
13585;DHT22;6863;48.402;9.994;2022-09-02T16:41:50;23.80;43.30
13585;DHT22;6863;48.402;9.994;2022-09-02T16:44:19;23.70;43.50
13585;DHT22;6863;48.402;9.994;2022-09-02T16:46:47;23.60;44.00
13585;DHT22;6863;48.402;9.994;2022-09-02T16:49:15;23.50;44.00
13585;DHT22;6863;48.402;9.994;2022-09-02T16:51:43;23.50;44.10
13585;DHT22;6863;48.402;9.994;2022-09-02T16:54:10;23.40;45.20
13585;DHT22;6863;48.402;9.994;2022-09-02T16:56:36;23.30;44.40
13585;DHT22;6863;48.402;9.994;2022-09-02T16:59:04;23.20;44.60
13585;DHT22;6863;48.402;9.994;2022-09-02T17:01:30;23.20;45.20
13585;DHT22;6863;48.402;9.994;2022-09-02T17:03:57;23.10;45.90
13585;DHT22;6863;48.402;9.994;2022-09-02T17:06:24;23.00;45.60
13585;DHT22;6863;48.402;9.994;2022-09-02T17:08:50;22.90;45.70
13585;DHT22;6863;48.402;9.994;2022-09-02T17:11:28;22.70;46.20
13585;DHT22;6863;48.402;9.994;2022-09-02T17:14:00;22.60;46.40
13585;DHT22;6863;48.402;9.994;2022-09-02T17:16:29;22.50;46.60
13585;DHT22;6863;48.402;9.994;2022-09-02T17:18:55;22.30;47.60
13585;DHT22;6863;48.402;9.994;2022-09-02T17:23:58;22.00;47.60
13585;DHT22;6863;48.402;9.994;2022-09-02T17:26:27;21.80;47.80
13585;DHT22;6863;48.402;9.994;2022-09-02T17:28:55;21.60;47.90
13585;DHT22;6863;48.402;9.994;2022-09-02T17:31:28;21.50;48.50
13585;DHT22;6863;48.402;9.994;2022-09-02T17:33:56;21.40;49.00
13585;DHT22;6863;48.402;9.994;2022-09-02T17:36:23;21.30;49.40
13585;DHT22;6863;48.402;9.994;2022-09-02T17:38:54;21.10;49.50
13585;DHT22;6863;48.402;9.994;2022-09-02T17:41:21;21.00;49.90
13585;DHT22;6863;48.402;9.994;2022-09-02T17:44:06;20.90;50.40
13585;DHT22;6863;48.402;9.994;2022-09-02T17:46:31;20.80;51.90
13585;DHT22;6863;48.402;9.994;2022-09-02T17:48:57;20.60;52.50
13585;DHT22;6863;48.402;9.994;2022-09-02T17:53:53;20.30;54.50
13585;DHT22;6863;48.402;9.994;2022-09-02T18:09:53;19.60;58.50
13585;DHT22;6863;48.402;9.994;2022-09-02T18:12:19;19.50;59.20
13585;DHT22;6863;48.402;9.994;2022-09-02T18:14:58;19.40;59.50
13585;DHT22;6863;48.402;9.994;2022-09-02T18:17:51;19.30;60.00
13585;DHT22;6863;48.402;9.994;2022-09-02T18:20:39;19.30;60.80
13585;DHT22;6863;48.402;9.994;2022-09-02T18:29:09;19.00;62.70
13585;DHT22;6863;48.402;9.994;2022-09-02T18:31:45;19.00;63.10
13585;DHT22;6863;48.402;9.994;2022-09-02T18:40:58;18.70;64.90
13585;DHT22;6863;48.402;9.994;2022-09-02T18:46:20;18.70;65.90
13585;DHT22;6863;48.402;9.994;2022-09-02T18:48:49;18.70;66.50
13585;DHT22;6863;48.402;9.994;2022-09-02T18:53:53;18.70;67.90
13585;DHT22;6863;48.402;9.994;2022-09-02T18:56:23;18.60;68.50
13585;DHT22;6863;48.402;9.994;2022-09-02T18:59:01;18.50;69.40